createdAt,value
2022-08-09T00:04:06.191Z,2.1
2022-08-09T00:08:32.532Z,2.1
2022-08-09T00:13:20.468Z,2.1
2022-08-09T00:18:20.435Z,2.2
2022-08-09T00:23:54.874Z,2.1
2022-08-09T00:28:20.406Z,2.4
2022-08-09T00:33:20.397Z,2.3
2022-08-09T00:38:21.250Z,2.4
2022-08-09T00:44:13.563Z,2.1
2022-08-09T00:48:20.398Z,2.4
2022-08-09T00:53:24.371Z,2.5
2022-08-09T00:58:25.432Z,2.4
2022-08-09T01:03:20.365Z,2.1
2022-08-09T01:08:26.914Z,2.7
2022-08-09T01:13:22.131Z,2.3
2022-08-09T01:18:29.930Z,2.4
2022-08-09T01:24:03.329Z,3
2022-08-09T01:28:21.288Z,3.1
2022-08-09T01:33:20.163Z,2.6
2022-08-09T01:38:20.171Z,2.7
2022-08-09T01:43:20.109Z,3
2022-08-09T01:48:24.061Z,2.8
2022-08-09T01:53:21.512Z,3.4
2022-08-09T01:58:24.228Z,3.5
2022-08-09T02:03:19.898Z,3.4
2022-08-09T02:08:39.147Z,3.5
2022-08-09T02:13:19.730Z,3.5
2022-08-09T02:18:19.666Z,3.2
2022-08-09T02:23:19.603Z,3.4
2022-08-09T02:28:19.561Z,3.5
2022-08-09T02:33:19.473Z,3.4
2022-08-09T02:38:22.095Z,3.2
2022-08-09T02:43:21.052Z,3.7
2022-08-09T02:48:30.817Z,3.2
2022-08-09T02:53:25.983Z,3.5
2022-08-09T02:58:36.082Z,3.9
2022-08-09T03:03:21.710Z,3.3
2022-08-09T03:08:18.919Z,4.2
2022-08-09T03:13:18.863Z,3.7
2022-08-09T03:18:19.106Z,3.6
2022-08-09T03:23:24.733Z,3.7
2022-08-09T03:28:18.574Z,3.3
2022-08-09T03:33:19.428Z,3.4
2022-08-09T03:38:29.025Z,3.5
2022-08-09T03:43:18.283Z,3.8
2022-08-09T03:48:19.053Z,3.3
2022-08-09T03:53:18.146Z,3.6
2022-08-09T03:58:21.193Z,3.5
2022-08-09T04:03:24.631Z,3.4
2022-08-09T04:08:17.851Z,3.9
2022-08-09T04:13:18.810Z,3.4
2022-08-09T04:18:18.278Z,3.1
2022-08-09T04:23:17.748Z,2.9
2022-08-09T04:28:17.472Z,3.3
2022-08-09T04:33:17.357Z,2.9
2022-08-09T04:38:17.211Z,3.4
2022-08-09T04:43:18.208Z,3.3
2022-08-09T04:48:17.730Z,2.9
2022-08-09T04:53:16.925Z,3.2
2022-08-09T04:58:16.771Z,3.5
2022-08-09T05:03:40.322Z,3.1
2022-08-09T05:08:16.576Z,3.5
2022-08-09T05:13:16.446Z,3.2
2022-08-09T05:18:50.390Z,3.4
2022-08-09T05:23:56.929Z,3.2
2022-08-09T05:28:17.266Z,3.2
2022-08-09T05:33:15.948Z,3.1
2022-08-09T05:38:21.757Z,3
2022-08-09T05:43:15.701Z,3
2022-08-09T05:48:15.557Z,3.1
2022-08-09T05:53:31.818Z,3.7
2022-08-09T05:58:18.384Z,3.6
2022-08-09T06:03:20.216Z,3.4
2022-08-09T06:08:18.924Z,3.4
2022-08-09T06:13:20.388Z,3.4
2022-08-09T06:18:15.714Z,3.3
2022-08-09T06:23:15.636Z,3.8
2022-08-09T06:28:14.242Z,3.6
2022-08-09T06:33:39.581Z,3.6
2022-08-09T06:38:14.073Z,3.8
2022-08-09T06:43:13.819Z,3.1
2022-08-09T06:48:16.588Z,3.6
2022-08-09T06:53:13.522Z,3.6
2022-08-09T07:00:52.180Z,4.2
2022-08-09T07:03:13.204Z,4.1
2022-08-09T07:08:12.962Z,3.7
2022-08-09T07:13:27.486Z,4.1
2022-08-09T07:18:14.285Z,4
2022-08-09T07:23:19.153Z,4.4
2022-08-09T07:28:12.327Z,4.2
2022-08-09T07:33:12.172Z,4.3
2022-08-09T07:38:12.053Z,4.2
2022-08-09T07:43:16.695Z,4.6
2022-08-09T07:48:22.457Z,4.2
2022-08-09T07:53:11.619Z,4.4
2022-08-09T07:58:13.307Z,4.3
2022-08-09T08:03:11.472Z,3.8
2022-08-09T08:09:01.059Z,4.4
2022-08-09T08:13:11.056Z,4.1
2022-08-09T08:18:10.889Z,4.2
2022-08-09T08:23:16.610Z,4.4
2022-08-09T08:28:10.740Z,4.4
2022-08-09T08:33:12.071Z,4.1
2022-08-09T08:38:11.517Z,4.1
2022-08-09T08:43:13.694Z,3.7
2022-08-09T08:48:10.339Z,3.8
2022-08-09T08:53:15.916Z,3.9
2022-08-09T08:58:10.722Z,4
2022-08-09T09:03:16.279Z,4.1
2022-08-09T09:08:29.428Z,4.2
2022-08-09T09:13:11.561Z,4.4
2022-08-09T09:18:10.684Z,4
2022-08-09T09:23:09.549Z,4.1
2022-08-09T09:28:10.996Z,3.5
2022-08-09T09:33:16.195Z,4.3
2022-08-09T09:38:09.289Z,4.3
2022-08-09T09:43:09.403Z,4.6
2022-08-09T09:48:09.123Z,4.5
2022-08-09T09:53:10.531Z,3.9
2022-08-09T09:58:16.718Z,4.2
2022-08-09T10:03:13.874Z,4.6
2022-08-09T10:08:25.951Z,3.9
2022-08-09T10:13:10.129Z,4.4
2022-08-09T10:18:08.733Z,4.2
2022-08-09T10:23:08.732Z,4
2022-08-09T10:28:08.669Z,4.5
2022-08-09T10:33:08.634Z,5
2022-08-09T10:38:33.739Z,5.2
2022-08-09T10:43:09.593Z,4.6
2022-08-09T10:48:19.580Z,5.8
2022-08-09T10:53:10.683Z,5.4
2022-08-09T10:58:08.475Z,4.9
2022-08-09T11:03:19.699Z,4.6
2022-08-09T11:08:08.440Z,4.7
2022-08-09T11:13:08.489Z,4.4
2022-08-09T11:18:08.428Z,4.3
2022-08-09T11:23:10.167Z,4.1
2022-08-09T11:28:27.507Z,4.4
2022-08-09T11:33:08.402Z,4
2022-08-09T11:38:08.385Z,4.5
2022-08-09T11:43:08.385Z,4.8
2022-08-09T11:48:17.454Z,4.5
2022-08-09T11:53:21.325Z,5.1
2022-08-09T11:58:08.352Z,4.4
2022-08-09T12:03:31.827Z,3.9
2022-08-09T12:08:08.346Z,4.5
2022-08-09T12:14:10.258Z,3.7
2022-08-09T12:18:08.475Z,4
2022-08-09T12:23:08.372Z,4.4
2022-08-09T12:28:59.432Z,4.5
2022-08-09T12:33:08.373Z,4.8
2022-08-09T12:38:08.340Z,5
2022-08-09T12:43:10.193Z,3.9
2022-08-09T12:48:20.115Z,4.7
2022-08-09T12:53:19.369Z,4.7
2022-08-09T13:03:08.436Z,4.6
2022-08-09T13:08:08.465Z,4.6
2022-08-09T13:13:11.499Z,4.4
2022-08-09T13:18:09.772Z,4.6
2022-08-09T13:24:16.658Z,4.4
2022-08-09T13:28:08.475Z,4.5
2022-08-09T13:32:32.210Z,4.5
2022-08-09T13:33:11.967Z,4.8
2022-08-09T13:38:17.600Z,4.1
2022-08-09T13:43:09.453Z,4.4
2022-08-09T13:48:10.850Z,4.3
2022-08-09T13:53:08.602Z,4.2
2022-08-09T13:58:11.850Z,4.2
2022-08-09T14:04:01.873Z,4.3
2022-08-09T14:08:10.432Z,4.5
2022-08-09T14:13:12.111Z,6.7
2022-08-09T14:18:18.955Z,9.2
2022-08-09T14:23:08.810Z,12.7
2022-08-09T14:28:10.147Z,5.9
2022-08-09T14:33:11.451Z,8.2
2022-08-09T14:38:09.868Z,9.2
2022-08-09T14:43:10.041Z,6.5
2022-08-09T14:48:09.132Z,7.1
2022-08-09T14:53:11.503Z,7.9
2022-08-09T14:58:10.825Z,5.7
2022-08-09T15:03:09.031Z,6.9
2022-08-09T15:08:10.443Z,14.2
2022-08-09T15:13:09.156Z,9.5
2022-08-09T15:18:14.310Z,12
2022-08-09T15:23:56.203Z,5.7
2022-08-09T15:28:26.359Z,8.6
2022-08-09T15:33:09.128Z,6
2022-08-09T15:38:10.926Z,5.1
2022-08-09T15:43:09.090Z,6.1
2022-08-09T15:48:28.378Z,4.8
2022-08-09T15:54:02.057Z,5.5
2022-08-09T15:58:09.206Z,4.2
2022-08-09T16:03:09.190Z,5.7
2022-08-09T16:08:15.220Z,5.5
2022-08-09T16:13:20.831Z,4.7
2022-08-09T16:18:09.264Z,4.6
2022-08-09T16:23:09.296Z,5.7
2022-08-09T16:28:12.092Z,5.2
2022-08-09T16:33:09.367Z,5.7
2022-08-09T16:38:09.318Z,11.7
2022-08-09T16:40:04.949Z,11.7
2022-08-09T16:43:09.349Z,5.1
2022-08-09T16:48:39.384Z,5.7
2022-08-09T16:53:11.873Z,10.8
2022-08-09T16:58:11.282Z,6.8
2022-08-09T17:03:20.842Z,6.2
2022-08-09T17:08:45.076Z,6.7
2022-08-09T17:13:10.573Z,6.4
2022-08-09T17:18:10.608Z,6
2022-08-09T17:23:10.481Z,8.9
2022-08-09T17:28:09.532Z,5.5
2022-08-09T17:33:22.662Z,4.6
2022-08-09T17:38:31.990Z,7.8
2022-08-09T17:43:32.747Z,5.6
2022-08-09T17:48:09.512Z,6
2022-08-09T17:53:10.394Z,5.2
2022-08-09T17:58:09.729Z,7.5
2022-08-09T18:03:09.487Z,5.8
2022-08-09T18:08:10.966Z,5.8
2022-08-09T18:13:39.116Z,5.4
2022-08-09T18:18:09.441Z,5.3
2022-08-09T18:24:08.926Z,6.2
2022-08-09T18:28:20.997Z,4.7
2022-08-09T18:33:13.403Z,5
2022-08-09T18:38:09.379Z,5.1
2022-08-09T18:43:09.390Z,4.7
2022-08-09T18:48:09.365Z,4.3
2022-08-09T18:53:16.313Z,4.9
2022-08-09T18:58:09.364Z,4.7
2022-08-09T19:03:09.304Z,5
2022-08-09T19:08:14.183Z,6.8
2022-08-09T19:13:22.061Z,5.7
2022-08-09T19:18:16.996Z,5.8
2022-08-09T19:23:16.729Z,4.4
2022-08-09T19:28:13.042Z,4.7
2022-08-09T19:33:09.414Z,9.5
2022-08-09T19:38:09.191Z,9.7
2022-08-09T19:43:10.442Z,4.6
2022-08-09T19:48:10.880Z,5
2022-08-09T19:53:09.117Z,4
2022-08-09T19:58:16.423Z,3.6
2022-08-09T20:04:11.167Z,3.4
2022-08-09T20:08:09.007Z,4
2022-08-09T20:13:08.964Z,3.1
2022-08-09T20:18:09.993Z,3.1
2022-08-09T20:23:08.877Z,3.4
2022-08-09T20:28:08.774Z,3.2
2022-08-09T20:33:08.810Z,3.1
2022-08-09T20:38:22.383Z,3.4
2022-08-09T20:43:24.305Z,3.5
2022-08-09T20:48:08.627Z,3
2022-08-09T20:53:21.046Z,3.1
2022-08-09T20:58:19.990Z,3.2
2022-08-09T21:03:09.903Z,3.5
2022-08-09T21:08:08.410Z,3.4
2022-08-09T21:13:08.423Z,3.6
2022-08-09T21:18:23.693Z,3.5
2022-08-09T21:23:09.195Z,3.3
2022-08-09T21:28:12.216Z,3.5
2022-08-09T21:33:08.123Z,3.3
2022-08-09T21:38:08.108Z,3
2022-08-09T21:43:07.997Z,2.6
2022-08-09T21:48:07.990Z,2.7
2022-08-09T21:53:23.918Z,2.8
2022-08-09T21:58:13.407Z,2.8
2022-08-09T22:03:07.822Z,2.7
2022-08-09T22:08:13.073Z,2.1
2022-08-09T22:13:11.496Z,2.5
2022-08-09T22:18:07.606Z,2.2
2022-08-09T22:23:10.615Z,2.4
2022-08-09T22:28:07.617Z,2.1
2022-08-09T22:33:09.187Z,2.2
2022-08-09T22:38:07.996Z,2.4
2022-08-09T22:43:16.113Z,1.8
2022-08-09T22:48:19.690Z,1.8
2022-08-09T22:53:07.134Z,2
2022-08-09T22:58:07.024Z,1.8
2022-08-09T23:03:12.732Z,1.9
2022-08-09T23:08:27.437Z,1.8
2022-08-09T23:13:12.710Z,2.1
2022-08-09T23:18:06.623Z,1.6
2022-08-09T23:23:06.541Z,1.2
2022-08-09T23:28:15.387Z,1.7
2022-08-09T23:33:06.319Z,1.7
2022-08-09T23:38:06.216Z,1.5
2022-08-09T23:43:06.058Z,1.2
2022-08-09T23:48:08.925Z,1.8
2022-08-09T23:53:07.309Z,1.5
2022-08-09T23:58:24.112Z,1.5
